createdAt,value
2017-07-05T00:00:01.128Z,99.90
2017-07-05T00:02:30.040Z,99.90
2017-07-05T00:04:58.389Z,99.90
2017-07-05T00:07:26.693Z,99.90
2017-07-05T00:09:55.047Z,99.90
2017-07-05T00:12:23.370Z,99.90
2017-07-05T00:14:51.669Z,99.90
2017-07-05T00:17:20.048Z,99.90
2017-07-05T00:19:49.105Z,99.90
2017-07-05T00:22:18.226Z,99.90
2017-07-05T00:24:46.520Z,99.90
2017-07-05T00:27:14.888Z,99.90
2017-07-05T00:29:43.192Z,99.90
2017-07-05T00:32:11.552Z,99.90
2017-07-05T00:34:39.898Z,99.90
2017-07-05T00:37:08.250Z,99.90
2017-07-05T00:39:36.693Z,99.90
2017-07-05T00:42:04.992Z,99.90
2017-07-05T00:44:33.300Z,99.90
2017-07-05T00:47:01.653Z,99.90
2017-07-05T00:49:30.083Z,99.90
2017-07-05T00:51:58.434Z,99.90
2017-07-05T00:54:26.737Z,99.90
2017-07-05T00:56:55.620Z,99.90
2017-07-05T00:59:23.948Z,99.90
2017-07-05T01:01:52.263Z,99.90
2017-07-05T01:04:20.568Z,99.90
2017-07-05T01:06:48.918Z,99.90
2017-07-05T01:09:17.224Z,99.90
2017-07-05T01:11:45.592Z,99.90
2017-07-05T01:14:13.903Z,99.90
2017-07-05T01:16:42.977Z,99.90
2017-07-05T01:19:11.328Z,99.90
2017-07-05T01:21:39.634Z,99.90
2017-07-05T01:24:08.001Z,99.90
2017-07-05T01:26:36.349Z,99.90
2017-07-05T01:29:08.250Z,99.90
2017-07-05T01:31:43.580Z,99.90
2017-07-05T01:34:11.925Z,99.90
2017-07-05T01:36:40.232Z,99.90
2017-07-05T01:39:08.581Z,99.90
2017-07-05T01:41:37.692Z,99.90
2017-07-05T01:44:06.817Z,99.90
2017-07-05T01:46:35.168Z,99.90
2017-07-05T01:49:03.475Z,99.90
2017-07-05T01:51:32.589Z,99.90
2017-07-05T01:54:01.658Z,99.90
2017-07-05T01:56:30.025Z,99.90
2017-07-05T01:58:58.338Z,99.90
2017-07-05T02:01:26.834Z,99.90
2017-07-05T02:03:55.135Z,99.90
2017-07-05T02:06:23.460Z,99.90
2017-07-05T02:08:51.813Z,99.90
2017-07-05T02:11:20.116Z,99.90
2017-07-05T02:13:48.465Z,99.90
2017-07-05T02:16:16.825Z,99.90
2017-07-05T02:18:45.124Z,99.90
2017-07-05T02:21:13.429Z,99.90
2017-07-05T02:23:41.803Z,99.90
2017-07-05T02:26:10.147Z,99.90
2017-07-05T02:28:38.475Z,99.90
2017-07-05T02:31:06.824Z,99.90
2017-07-05T02:33:35.120Z,99.90
2017-07-05T02:36:03.493Z,99.90
2017-07-05T02:38:31.800Z,99.90
2017-07-05T02:41:00.115Z,99.90
2017-07-05T02:43:28.460Z,99.90
2017-07-05T02:45:56.809Z,99.90
2017-07-05T02:48:25.160Z,99.90
2017-07-05T02:50:53.507Z,99.90
2017-07-05T02:53:21.809Z,99.90
2017-07-05T02:55:50.155Z,99.90
2017-07-05T02:58:18.517Z,99.90
2017-07-05T03:00:46.820Z,99.90
2017-07-05T03:03:15.896Z,99.90
2017-07-05T03:05:44.254Z,99.90
2017-07-05T03:08:12.555Z,99.90
2017-07-05T03:10:40.864Z,99.90
2017-07-05T03:13:09.209Z,99.90
2017-07-05T03:15:37.557Z,99.90
2017-07-05T03:18:05.909Z,99.90
2017-07-05T03:20:34.219Z,99.90
2017-07-05T03:23:02.580Z,99.90
2017-07-05T03:25:30.892Z,99.90
2017-07-05T03:27:59.199Z,99.90
2017-07-05T03:30:27.569Z,99.90
2017-07-05T03:32:55.874Z,99.90
2017-07-05T03:35:24.185Z,99.90
2017-07-05T03:37:53.308Z,99.90
2017-07-05T03:40:21.618Z,99.90
2017-07-05T03:42:49.988Z,99.90
2017-07-05T03:45:19.076Z,99.90
2017-07-05T03:47:47.377Z,99.90
2017-07-05T03:50:15.721Z,99.90
2017-07-05T03:52:44.025Z,99.90
2017-07-05T03:55:12.377Z,99.90
2017-07-05T03:57:40.737Z,99.90
2017-07-05T04:00:09.061Z,99.90
2017-07-05T04:02:37.379Z,99.90
2017-07-05T04:05:05.736Z,99.90
2017-07-05T04:07:34.089Z,99.90
2017-07-05T04:10:02.435Z,99.90
2017-07-05T04:12:30.720Z,99.90
2017-07-05T04:14:59.070Z,99.90
2017-07-05T04:17:27.395Z,99.90
2017-07-05T04:19:55.740Z,99.90
2017-07-05T04:22:24.039Z,99.90
2017-07-05T04:24:52.830Z,99.90
2017-07-05T04:27:21.135Z,99.90
2017-07-05T04:29:50.201Z,99.90
2017-07-05T04:32:18.560Z,99.90
2017-07-05T04:34:46.864Z,99.90
2017-07-05T04:37:15.173Z,99.90
2017-07-05T04:39:43.525Z,99.90
2017-07-05T04:42:11.824Z,99.90
2017-07-05T04:44:40.205Z,99.90
2017-07-05T04:47:08.526Z,99.90
2017-07-05T04:49:36.878Z,99.90
2017-07-05T04:52:05.187Z,99.90
2017-07-05T04:54:33.554Z,99.90
2017-07-05T04:57:02.892Z,99.90
2017-07-05T04:59:31.195Z,99.90
2017-07-05T05:01:59.552Z,99.90
2017-07-05T05:04:27.860Z,99.90
2017-07-05T05:06:56.209Z,99.90
2017-07-05T05:09:24.517Z,99.90
2017-07-05T05:11:52.885Z,99.90
2017-07-05T05:14:21.949Z,99.90
2017-07-05T05:16:50.423Z,99.90
2017-07-05T05:19:18.735Z,99.90
2017-07-05T05:21:47.064Z,99.90
2017-07-05T05:24:15.418Z,99.90
2017-07-05T05:26:43.782Z,99.90
2017-07-05T05:29:12.100Z,99.90
2017-07-05T05:31:40.438Z,99.60
2017-07-05T05:34:09.563Z,99.90
2017-07-05T05:36:37.917Z,99.90
2017-07-05T05:39:06.984Z,99.90
2017-07-05T05:41:35.332Z,99.90
2017-07-05T05:44:04.397Z,98.80
2017-07-05T05:46:32.748Z,98.80
2017-07-05T05:49:01.061Z,99.80
2017-07-05T05:51:29.429Z,98.90
2017-07-05T05:53:57.779Z,98.70
2017-07-05T05:56:26.076Z,99.70
2017-07-05T05:58:54.498Z,98.80
2017-07-05T06:01:22.866Z,99.80
2017-07-05T06:03:51.937Z,99.40
2017-07-05T06:06:20.292Z,99.40
2017-07-05T06:08:48.631Z,98.80
2017-07-05T06:11:16.933Z,98.40
2017-07-05T06:13:45.294Z,97.90
2017-07-05T06:16:13.801Z,96.30
2017-07-05T06:18:43.335Z,93.50
2017-07-05T06:21:11.629Z,93.30
2017-07-05T06:23:39.998Z,92.90
2017-07-05T06:26:08.777Z,92.10
2017-07-05T06:28:37.387Z,91.10
2017-07-05T06:31:05.790Z,90.50
2017-07-05T06:33:34.096Z,89.20
2017-07-05T06:36:02.450Z,88.60
2017-07-05T06:38:30.798Z,88.80
2017-07-05T06:40:59.141Z,89.00
2017-07-05T06:43:27.453Z,87.90
2017-07-05T06:45:55.924Z,88.30
2017-07-05T06:48:24.240Z,89.10
2017-07-05T06:50:52.544Z,87.80
2017-07-05T06:53:21.659Z,88.40
2017-07-05T06:55:50.777Z,88.40
2017-07-05T06:58:19.085Z,84.80
2017-07-05T07:00:47.524Z,90.30
2017-07-05T07:03:15.828Z,84.90
2017-07-05T07:05:44.888Z,86.60
2017-07-05T07:08:13.256Z,86.50
2017-07-05T07:10:41.557Z,85.90
2017-07-05T07:13:09.856Z,87.30
2017-07-05T07:15:38.263Z,82.30
2017-07-05T07:18:06.561Z,85.30
2017-07-05T07:20:34.864Z,84.60
2017-07-05T07:23:03.208Z,84.20
2017-07-05T07:25:31.683Z,82.90
2017-07-05T07:27:59.991Z,83.10
2017-07-05T07:30:28.306Z,85.90
2017-07-05T07:32:56.664Z,85.20
2017-07-05T07:35:24.981Z,83.10
2017-07-05T07:37:53.355Z,83.70
2017-07-05T07:40:21.668Z,84.40
2017-07-05T07:42:49.992Z,84.70
2017-07-05T07:45:19.110Z,84.20
2017-07-05T07:47:47.705Z,84.10
2017-07-05T07:50:16.032Z,85.60
2017-07-05T07:52:44.338Z,85.50
2017-07-05T07:55:12.689Z,86.10
2017-07-05T07:57:41.249Z,87.20
2017-07-05T08:00:10.316Z,84.70
2017-07-05T08:02:38.621Z,84.60
2017-07-05T08:05:06.981Z,85.10
2017-07-05T08:07:35.293Z,84.00
2017-07-05T08:10:03.596Z,83.60
2017-07-05T08:12:31.964Z,83.20
2017-07-05T08:15:00.269Z,84.80
2017-07-05T08:17:28.620Z,81.40
2017-07-05T08:19:57.138Z,81.10
2017-07-05T08:22:25.443Z,83.80
2017-07-05T08:24:53.826Z,82.00
2017-07-05T08:27:22.175Z,82.80
2017-07-05T08:29:50.484Z,80.40
2017-07-05T08:32:18.852Z,82.10
2017-07-05T08:34:47.162Z,80.60
2017-07-05T08:37:15.500Z,80.30
2017-07-05T08:39:44.792Z,81.40
2017-07-05T08:42:13.100Z,82.00
2017-07-05T08:44:41.405Z,83.80
2017-07-05T08:47:09.767Z,84.80
2017-07-05T08:49:39.874Z,85.10
2017-07-05T08:52:08.193Z,84.00
2017-07-05T08:54:36.538Z,82.90
2017-07-05T08:57:04.894Z,79.60
2017-07-05T08:59:33.257Z,79.30
2017-07-05T09:02:01.573Z,81.20
2017-07-05T09:04:29.884Z,79.30
2017-07-05T09:06:58.273Z,79.90
2017-07-05T09:09:26.652Z,83.60
2017-07-05T09:11:54.972Z,83.30
2017-07-05T09:14:23.281Z,83.10
2017-07-05T09:16:51.627Z,76.60
2017-07-05T09:19:21.281Z,74.90
2017-07-05T09:21:49.602Z,77.10
2017-07-05T09:24:17.951Z,77.40
2017-07-05T09:26:46.262Z,78.10
2017-07-05T09:29:14.641Z,76.90
2017-07-05T09:31:42.953Z,77.10
2017-07-05T09:34:11.340Z,75.60
2017-07-05T09:36:39.742Z,68.90
2017-07-05T09:39:08.054Z,68.10
2017-07-05T09:41:37.125Z,71.20
2017-07-05T09:44:06.562Z,71.30
2017-07-05T09:46:34.932Z,77.80
2017-07-05T09:49:03.228Z,79.60
2017-07-05T09:51:31.544Z,78.20
2017-07-05T09:53:59.933Z,73.40
2017-07-05T09:56:28.293Z,78.30
2017-07-05T09:58:56.600Z,71.60
2017-07-05T10:01:24.900Z,68.70
2017-07-05T10:03:53.283Z,71.70
2017-07-05T10:06:21.644Z,66.60
2017-07-05T10:08:49.941Z,65.20
2017-07-05T10:11:18.346Z,68.30
2017-07-05T10:13:46.657Z,68.80
2017-07-05T10:16:15.021Z,72.40
2017-07-05T10:18:43.377Z,75.00
2017-07-05T10:21:11.782Z,77.80
2017-07-05T10:23:40.822Z,73.20
2017-07-05T10:26:09.181Z,72.40
2017-07-05T10:28:37.546Z,70.80
2017-07-05T10:31:05.855Z,72.80
2017-07-05T10:33:34.175Z,72.50
2017-07-05T10:36:03.929Z,73.70
2017-07-05T10:38:32.996Z,73.40
2017-07-05T10:41:01.368Z,73.60
2017-07-05T10:43:29.670Z,73.80
2017-07-05T10:45:57.976Z,72.40
2017-07-05T10:48:26.927Z,70.60
2017-07-05T10:50:55.260Z,73.00
2017-07-05T10:53:23.570Z,71.40
2017-07-05T10:55:51.953Z,73.00
2017-07-05T10:58:21.206Z,73.50
2017-07-05T11:00:49.515Z,78.20
2017-07-05T11:03:19.189Z,74.00
2017-07-05T11:05:47.525Z,72.40
2017-07-05T11:08:15.940Z,71.30
2017-07-05T11:10:44.281Z,75.70
2017-07-05T11:13:13.394Z,75.90
2017-07-05T11:15:41.776Z,76.00
2017-07-05T11:18:10.176Z,76.00
2017-07-05T11:20:39.246Z,78.50
2017-07-05T11:23:07.592Z,78.40
2017-07-05T11:25:41.108Z,70.40
2017-07-05T11:28:09.456Z,72.10
2017-07-05T11:30:38.005Z,68.10
2017-07-05T11:33:06.449Z,69.00
2017-07-05T11:35:34.784Z,69.00
2017-07-05T11:38:03.132Z,70.10
2017-07-05T11:40:31.459Z,69.10
2017-07-05T11:42:59.816Z,70.60
2017-07-05T11:45:28.933Z,72.10
2017-07-05T11:47:58.466Z,73.70
2017-07-05T11:50:26.800Z,73.70
2017-07-05T11:52:55.128Z,72.60
2017-07-05T11:55:23.498Z,74.00
2017-07-05T11:57:51.805Z,68.40
2017-07-05T12:00:20.925Z,65.30
2017-07-05T12:02:49.281Z,65.10
2017-07-05T12:05:18.377Z,67.10
2017-07-05T12:07:46.735Z,66.90
2017-07-05T12:10:15.049Z,64.60
2017-07-05T12:12:43.348Z,64.30
2017-07-05T12:15:11.743Z,65.00
2017-07-05T12:17:40.050Z,65.90
2017-07-05T12:20:08.451Z,64.60
2017-07-05T12:22:36.798Z,63.40
2017-07-05T12:25:05.076Z,68.80
2017-07-05T12:27:33.437Z,64.40
2017-07-05T12:30:01.930Z,64.80
2017-07-05T12:32:31.835Z,64.70
2017-07-05T12:35:00.223Z,66.30
2017-07-05T12:37:28.516Z,65.30
2017-07-05T12:39:56.894Z,62.60
2017-07-05T12:42:25.181Z,59.20
2017-07-05T12:44:53.728Z,58.30
2017-07-05T12:47:22.072Z,58.90
2017-07-05T12:49:50.388Z,62.20
2017-07-05T12:52:18.733Z,63.50
2017-07-05T12:54:47.028Z,61.00
2017-07-05T12:57:15.365Z,62.50
2017-07-05T12:59:43.710Z,63.70
2017-07-05T13:02:12.052Z,63.60
2017-07-05T13:04:40.421Z,63.10
2017-07-05T13:07:08.722Z,65.10
2017-07-05T13:09:37.012Z,66.30
2017-07-05T13:12:05.360Z,62.20
2017-07-05T13:14:33.708Z,62.90
2017-07-05T13:17:02.052Z,64.80
2017-07-05T13:19:30.506Z,66.30
2017-07-05T13:21:58.803Z,67.60
2017-07-05T13:24:27.105Z,67.30
2017-07-05T13:26:55.592Z,68.00
2017-07-05T13:29:23.908Z,67.60
2017-07-05T13:31:52.259Z,66.70
2017-07-05T13:34:20.575Z,67.30
2017-07-05T13:36:48.868Z,66.50
2017-07-05T13:39:17.298Z,65.50
2017-07-05T13:41:45.597Z,67.20
2017-07-05T13:44:13.948Z,65.50
2017-07-05T13:46:42.254Z,64.10
2017-07-05T13:49:10.610Z,65.40
2017-07-05T13:51:38.908Z,64.40
2017-07-05T13:54:07.289Z,65.20
2017-07-05T13:56:35.610Z,63.30
2017-07-05T13:59:03.936Z,62.10
2017-07-05T14:01:32.285Z,63.70
2017-07-05T14:04:00.637Z,61.50
2017-07-05T14:06:29.269Z,61.30
2017-07-05T14:08:57.633Z,62.60
2017-07-05T14:11:25.947Z,60.00
2017-07-05T14:13:54.249Z,58.30
2017-07-05T14:16:22.608Z,59.90
2017-07-05T14:18:50.917Z,62.70
2017-07-05T14:21:19.292Z,63.50
2017-07-05T14:23:47.637Z,63.10
2017-07-05T14:26:15.941Z,61.50
2017-07-05T14:28:44.265Z,60.60
2017-07-05T14:31:12.635Z,63.50
2017-07-05T14:33:40.937Z,61.30
2017-07-05T14:36:09.317Z,62.90
2017-07-05T14:38:37.797Z,67.30
2017-07-05T14:41:06.149Z,62.40
2017-07-05T14:43:34.449Z,62.90
2017-07-05T14:46:02.817Z,64.10
2017-07-05T14:48:31.124Z,65.50
2017-07-05T14:50:59.493Z,66.00
2017-07-05T14:53:27.852Z,67.10
2017-07-05T14:55:58.669Z,67.30
2017-07-05T14:58:27.012Z,65.60
2017-07-05T15:00:55.318Z,65.30
2017-07-05T15:03:23.672Z,63.80
2017-07-05T15:05:52.025Z,63.10
2017-07-05T15:08:20.392Z,66.70
2017-07-05T15:10:49.199Z,67.00
2017-07-05T15:13:17.709Z,66.60
2017-07-05T15:15:46.021Z,65.90
2017-07-05T15:18:14.321Z,64.90
2017-07-05T15:20:42.964Z,64.60
2017-07-05T15:23:11.259Z,66.90
2017-07-05T15:25:39.809Z,67.30
2017-07-05T15:28:08.161Z,63.40
2017-07-05T15:30:36.460Z,63.20
2017-07-05T15:33:04.760Z,61.70
2017-07-05T15:35:33.104Z,61.70
2017-07-05T15:38:01.482Z,60.40
2017-07-05T15:40:29.834Z,60.70
2017-07-05T15:42:58.136Z,63.00
2017-07-05T15:45:26.485Z,64.30
2017-07-05T15:47:54.830Z,67.10
2017-07-05T15:50:23.192Z,62.70
2017-07-05T15:52:51.500Z,64.50
2017-07-05T15:55:19.964Z,64.00
2017-07-05T15:57:49.290Z,64.20
2017-07-05T16:00:17.597Z,65.00
2017-07-05T16:02:45.956Z,63.20
2017-07-05T16:05:14.268Z,63.90
2017-07-05T16:07:42.558Z,65.70
2017-07-05T16:10:10.992Z,67.20
2017-07-05T16:12:39.335Z,64.60
2017-07-05T16:15:07.704Z,66.20
2017-07-05T16:17:36.065Z,66.50
2017-07-05T16:20:04.365Z,66.90
2017-07-05T16:22:32.710Z,66.80
2017-07-05T16:25:01.029Z,69.90
2017-07-05T16:27:29.382Z,66.40
2017-07-05T16:29:57.780Z,66.70
2017-07-05T16:32:26.081Z,68.70
2017-07-05T16:34:54.381Z,68.20
2017-07-05T16:37:22.731Z,66.80
2017-07-05T16:39:51.061Z,70.30
2017-07-05T16:42:19.415Z,68.60
2017-07-05T16:44:47.725Z,68.30
2017-07-05T16:47:16.028Z,69.00
2017-07-05T16:49:44.376Z,68.10
2017-07-05T16:52:12.677Z,68.90
2017-07-05T16:54:41.070Z,68.40
2017-07-05T16:57:09.404Z,67.80
2017-07-05T16:59:37.708Z,65.80
2017-07-05T17:02:07.180Z,65.30
2017-07-05T17:04:35.477Z,65.40
2017-07-05T17:07:03.775Z,63.20
2017-07-05T17:09:32.280Z,63.80
2017-07-05T17:12:00.617Z,63.80
2017-07-05T17:14:28.928Z,64.30
2017-07-05T17:16:57.278Z,63.50
2017-07-05T17:19:27.737Z,65.00
2017-07-05T17:21:56.080Z,65.30
2017-07-05T17:24:24.392Z,63.90
2017-07-05T17:26:52.750Z,64.50
2017-07-05T17:29:21.052Z,64.40
2017-07-05T17:31:49.364Z,65.30
2017-07-05T17:34:17.748Z,64.70
2017-07-05T17:36:46.099Z,66.30
2017-07-05T17:39:14.452Z,65.00
2017-07-05T17:41:42.813Z,64.30
2017-07-05T17:44:11.264Z,64.60
2017-07-05T17:46:39.619Z,65.20
2017-07-05T17:49:07.909Z,64.90
2017-07-05T17:51:36.256Z,64.90
2017-07-05T17:54:04.608Z,64.40
2017-07-05T17:56:32.961Z,65.30
2017-07-05T17:59:01.264Z,63.80
2017-07-05T18:01:29.621Z,64.40
2017-07-05T18:03:57.923Z,64.50
2017-07-05T18:06:26.283Z,65.50
2017-07-05T18:08:54.590Z,66.20
2017-07-05T18:11:22.937Z,65.00
2017-07-05T18:13:51.250Z,67.00
2017-07-05T18:16:19.691Z,66.50
2017-07-05T18:18:47.997Z,68.20
2017-07-05T18:21:16.298Z,69.30
2017-07-05T18:23:44.647Z,69.70
2017-07-05T18:26:12.995Z,70.50
2017-07-05T18:28:41.400Z,71.70
2017-07-05T18:31:09.759Z,72.30
2017-07-05T18:33:38.106Z,73.10
2017-07-05T18:36:07.392Z,74.40
2017-07-05T18:38:35.701Z,74.10
2017-07-05T18:41:04.005Z,75.00
2017-07-05T18:43:32.370Z,75.60
2017-07-05T18:46:01.666Z,75.90
2017-07-05T18:48:30.062Z,79.00
2017-07-05T18:50:58.364Z,80.90
2017-07-05T18:53:26.723Z,82.40
2017-07-05T18:55:55.065Z,83.90
2017-07-05T18:58:23.416Z,84.70
2017-07-05T19:00:51.871Z,84.90
2017-07-05T19:03:20.184Z,86.50
2017-07-05T19:05:48.532Z,87.80
2017-07-05T19:08:17.008Z,88.70
2017-07-05T19:10:45.316Z,90.00
2017-07-05T19:13:13.626Z,90.50
2017-07-05T19:15:41.976Z,91.10
2017-07-05T19:18:10.377Z,91.70
2017-07-05T19:20:39.457Z,93.20
2017-07-05T19:23:08.028Z,92.80
2017-07-05T19:25:36.384Z,92.90
2017-07-05T19:28:05.453Z,93.60
2017-07-05T19:30:33.796Z,93.60
2017-07-05T19:33:02.215Z,93.60
2017-07-05T19:35:30.516Z,94.00
2017-07-05T19:37:58.868Z,94.30
2017-07-05T19:40:27.216Z,94.60
2017-07-05T19:42:55.540Z,94.60
2017-07-05T19:45:23.898Z,94.60
2017-07-05T19:47:52.308Z,95.00
2017-07-05T19:50:20.613Z,94.80
2017-07-05T19:52:49.145Z,95.20
2017-07-05T19:55:17.477Z,95.50
2017-07-05T19:57:46.090Z,95.50
2017-07-05T20:00:14.818Z,95.60
2017-07-05T20:02:43.194Z,95.60
2017-07-05T20:05:11.676Z,95.70
2017-07-05T20:07:40.129Z,95.80
2017-07-05T20:10:08.887Z,95.90
2017-07-05T20:12:37.441Z,96.10
2017-07-05T20:15:05.856Z,96.40
2017-07-05T20:17:34.528Z,96.70
2017-07-05T20:20:04.798Z,96.90
2017-07-05T20:22:33.174Z,97.20
2017-07-05T20:25:01.484Z,97.20
2017-07-05T20:27:29.860Z,97.30
2017-07-05T20:29:58.450Z,97.30
2017-07-05T20:32:26.761Z,97.60
2017-07-05T20:34:55.068Z,97.70
2017-07-05T20:37:23.519Z,97.80
2017-07-05T20:39:52.976Z,97.80
2017-07-05T20:42:21.337Z,98.10
2017-07-05T20:44:49.709Z,98.20
2017-07-05T20:47:18.033Z,98.30
2017-07-05T20:49:46.339Z,98.50
2017-07-05T20:52:14.717Z,99.00
2017-07-05T20:54:43.023Z,99.50
2017-07-05T20:57:12.752Z,99.60
2017-07-05T20:59:41.098Z,99.80
2017-07-05T21:02:09.414Z,99.90
2017-07-05T21:04:37.769Z,99.90
2017-07-05T21:07:06.861Z,99.90
2017-07-05T21:09:35.475Z,99.90
2017-07-05T21:12:04.542Z,99.90
2017-07-05T21:14:32.841Z,99.90
2017-07-05T21:17:01.197Z,99.90
2017-07-05T21:19:29.565Z,99.90
2017-07-05T21:21:57.869Z,99.90
2017-07-05T21:24:26.225Z,99.90
2017-07-05T21:26:54.583Z,99.90
2017-07-05T21:29:22.930Z,99.90
2017-07-05T21:31:51.232Z,99.90
2017-07-05T21:34:19.543Z,99.90
2017-07-05T21:36:47.888Z,99.90
2017-07-05T21:39:17.067Z,99.90
2017-07-05T21:41:45.425Z,99.90
2017-07-05T21:44:13.777Z,99.90
2017-07-05T21:46:42.845Z,99.90
2017-07-05T21:49:11.191Z,99.90
2017-07-05T21:51:39.553Z,99.90
2017-07-05T21:54:08.629Z,99.90
2017-07-05T21:56:38.768Z,99.90
2017-07-05T21:59:08.045Z,99.90
2017-07-05T22:01:36.389Z,99.90
2017-07-05T22:04:05.467Z,99.90
2017-07-05T22:06:33.821Z,99.90
2017-07-05T22:09:02.123Z,99.90
2017-07-05T22:11:30.488Z,99.90
2017-07-05T22:13:59.559Z,99.90
2017-07-05T22:16:30.267Z,99.90
2017-07-05T22:18:58.727Z,99.90
2017-07-05T22:21:27.797Z,99.90
2017-07-05T22:23:56.096Z,99.90
2017-07-05T22:26:24.704Z,99.90
2017-07-05T22:28:53.005Z,99.90
2017-07-05T22:31:22.072Z,99.90
2017-07-05T22:33:50.429Z,99.90
2017-07-05T22:36:18.745Z,99.90
2017-07-05T22:38:47.104Z,99.90
2017-07-05T22:41:15.419Z,99.90
2017-07-05T22:43:43.756Z,99.90
2017-07-05T22:46:12.068Z,99.90
2017-07-05T22:48:40.436Z,99.90
2017-07-05T22:51:09.059Z,99.90
2017-07-05T22:53:37.416Z,99.90
2017-07-05T22:56:05.716Z,99.90
2017-07-05T22:58:34.016Z,99.90
2017-07-05T23:01:02.364Z,99.90
2017-07-05T23:03:30.743Z,99.90
2017-07-05T23:05:59.049Z,99.90
2017-07-05T23:08:27.367Z,99.90
2017-07-05T23:10:55.737Z,99.90
2017-07-05T23:13:24.045Z,99.90
2017-07-05T23:15:52.497Z,99.90
2017-07-05T23:18:20.810Z,99.90
2017-07-05T23:20:49.196Z,99.90
2017-07-05T23:23:18.610Z,99.90
2017-07-05T23:25:46.911Z,99.90
2017-07-05T23:28:18.176Z,99.90
2017-07-05T23:30:46.480Z,99.90
2017-07-05T23:33:19.075Z,99.90
2017-07-05T23:35:47.438Z,99.90
2017-07-05T23:38:15.744Z,99.90
2017-07-05T23:40:44.087Z,99.90
2017-07-05T23:43:12.452Z,99.90
2017-07-05T23:45:40.825Z,99.90
2017-07-05T23:48:09.124Z,99.90
2017-07-05T23:50:37.431Z,99.90
2017-07-05T23:53:05.777Z,99.90
2017-07-05T23:55:34.081Z,99.90
2017-07-05T23:58:04.247Z,99.90
